sensor_id;sensor_type;location;lat;lon;timestamp;P1;durP1;ratioP1;P2;durP2;ratioP2
76548;SDS011;65391;52.068;4.542;2023-07-13T00:00:23;11.8;;;2.1;;
76548;SDS011;65391;52.068;4.542;2023-07-13T00:02:48;15.5;;;3.3;;
76548;SDS011;65391;52.068;4.542;2023-07-13T00:05:13;15.5;;;3.3;;
76548;SDS011;65391;52.068;4.542;2023-07-13T00:07:38;15.5;;;3.3;;
76548;SDS011;65391;52.068;4.542;2023-07-13T00:10:04;15.5;;;3.3;;
76548;SDS011;65391;52.068;4.542;2023-07-13T00:12:30;15.5;;;3.8;;
76548;SDS011;65391;52.068;4.542;2023-07-13T00:14:54;15.5;;;3.8;;
76548;SDS011;65391;52.068;4.542;2023-07-13T00:17:18;15.5;;;3.8;;
76548;SDS011;65391;52.068;4.542;2023-07-13T00:19:43;15.5;;;3.8;;
76548;SDS011;65391;52.068;4.542;2023-07-13T00:22:08;12.7;;;3;;
76548;SDS011;65391;52.068;4.542;2023-07-13T00:24:33;12.7;;;3;;
76548;SDS011;65391;52.068;4.542;2023-07-13T00:26:58;12.7;;;3;;
76548;SDS011;65391;52.068;4.542;2023-07-13T00:29:25;12.7;;;3;;
76548;SDS011;65391;52.068;4.542;2023-07-13T00:31:48;10.5;;;2.3;;
76548;SDS011;65391;52.068;4.542;2023-07-13T00:34:13;10.5;;;2.3;;
76548;SDS011;65391;52.068;4.542;2023-07-13T00:36:38;10.5;;;2.3;;
76548;SDS011;65391;52.068;4.542;2023-07-13T00:39:03;10.5;;;2.3;;
76548;SDS011;65391;52.068;4.542;2023-07-13T00:41:28;9.9;;;2;;
76548;SDS011;65391;52.068;4.542;2023-07-13T00:43:53;9.9;;;2;;
76548;SDS011;65391;52.068;4.542;2023-07-13T00:46:23;9.9;;;2;;
76548;SDS011;65391;52.068;4.542;2023-07-13T00:48:44;9.9;;;2;;
76548;SDS011;65391;52.068;4.542;2023-07-13T00:51:08;13.2;;;2.4;;
76548;SDS011;65391;52.068;4.542;2023-07-13T00:53:33;13.2;;;2.4;;
76548;SDS011;65391;52.068;4.542;2023-07-13T00:55:58;13.2;;;2.4;;
76548;SDS011;65391;52.068;4.542;2023-07-13T00:58:24;13.2;;;2.4;;
76548;SDS011;65391;52.068;4.542;2023-07-13T01:00:48;13.2;;;2.4;;
76548;SDS011;65391;52.068;4.542;2023-07-13T01:03:13;9.6;;;2.1;;
76548;SDS011;65391;52.068;4.542;2023-07-13T01:05:38;9.6;;;2.1;;
76548;SDS011;65391;52.068;4.542;2023-07-13T01:08:04;9.6;;;2.1;;
76548;SDS011;65391;52.068;4.542;2023-07-13T01:10:28;9.6;;;2.1;;
76548;SDS011;65391;52.068;4.542;2023-07-13T01:12:53;9.3;;;2.1;;
76548;SDS011;65391;52.068;4.542;2023-07-13T01:15:34;9.3;;;2.1;;
76548;SDS011;65391;52.068;4.542;2023-07-13T01:17:43;9.3;;;2.1;;
76548;SDS011;65391;52.068;4.542;2023-07-13T01:20:09;9.3;;;2.1;;
76548;SDS011;65391;52.068;4.542;2023-07-13T01:22:33;10.8;;;2.5;;
76548;SDS011;65391;52.068;4.542;2023-07-13T01:24:58;10.8;;;2.5;;
76548;SDS011;65391;52.068;4.542;2023-07-13T01:27:25;10.8;;;2.5;;
76548;SDS011;65391;52.068;4.542;2023-07-13T01:29:48;10.8;;;2.5;;
76548;SDS011;65391;52.068;4.542;2023-07-13T01:32:14;12.2;;;2.5;;
76548;SDS011;65391;52.068;4.542;2023-07-13T01:34:39;12.2;;;2.5;;
76548;SDS011;65391;52.068;4.542;2023-07-13T01:37:04;12.2;;;2.5;;
76548;SDS011;65391;52.068;4.542;2023-07-13T01:39:28;12.2;;;2.5;;
76548;SDS011;65391;52.068;4.542;2023-07-13T01:41:53;12.9;;;1.9;;
76548;SDS011;65391;52.068;4.542;2023-07-13T01:44:18;12.9;;;1.9;;
76548;SDS011;65391;52.068;4.542;2023-07-13T01:46:43;12.9;;;1.9;;
76548;SDS011;65391;52.068;4.542;2023-07-13T01:49:08;12.9;;;1.9;;
76548;SDS011;65391;52.068;4.542;2023-07-13T01:51:33;6.2;;;1.2;;
76548;SDS011;65391;52.068;4.542;2023-07-13T01:53:58;6.2;;;1.2;;
76548;SDS011;65391;52.068;4.542;2023-07-13T01:56:23;6.2;;;1.2;;
76548;SDS011;65391;52.068;4.542;2023-07-13T01:58:48;6.2;;;1.2;;
76548;SDS011;65391;52.068;4.542;2023-07-13T02:01:13;7.4;;;1;;
76548;SDS011;65391;52.068;4.542;2023-07-13T02:03:39;7.4;;;1;;
76548;SDS011;65391;52.068;4.542;2023-07-13T02:06:03;7.4;;;1;;
76548;SDS011;65391;52.068;4.542;2023-07-13T02:08:28;7.4;;;1;;
76548;SDS011;65391;52.068;4.542;2023-07-13T02:10:53;7.4;;;1;;
76548;SDS011;65391;52.068;4.542;2023-07-13T02:13:18;7.7;;;1;;
76548;SDS011;65391;52.068;4.542;2023-07-13T02:15:44;7.7;;;1;;
76548;SDS011;65391;52.068;4.542;2023-07-13T02:18:09;7.7;;;1;;
76548;SDS011;65391;52.068;4.542;2023-07-13T02:20:34;7.7;;;1;;
76548;SDS011;65391;52.068;4.542;2023-07-13T02:22:58;6.7;;;1.1;;
76548;SDS011;65391;52.068;4.542;2023-07-13T02:25:24;6.7;;;1.1;;
76548;SDS011;65391;52.068;4.542;2023-07-13T02:27:49;6.7;;;1.1;;
76548;SDS011;65391;52.068;4.542;2023-07-13T02:30:14;6.7;;;1.1;;
76548;SDS011;65391;52.068;4.542;2023-07-13T02:32:38;4.6;;;0.9;;
76548;SDS011;65391;52.068;4.542;2023-07-13T02:35:04;4.6;;;0.9;;
76548;SDS011;65391;52.068;4.542;2023-07-13T02:37:29;4.6;;;0.9;;
76548;SDS011;65391;52.068;4.542;2023-07-13T02:39:54;4.6;;;0.9;;
76548;SDS011;65391;52.068;4.542;2023-07-13T02:42:19;4.1;;;1.4;;
76548;SDS011;65391;52.068;4.542;2023-07-13T02:44:44;4.1;;;1.4;;
76548;SDS011;65391;52.068;4.542;2023-07-13T02:47:09;4.1;;;1.4;;
76548;SDS011;65391;52.068;4.542;2023-07-13T02:49:33;4.1;;;1.4;;
76548;SDS011;65391;52.068;4.542;2023-07-13T02:51:59;5.4;;;0.8;;
76548;SDS011;65391;52.068;4.542;2023-07-13T02:54:24;5.4;;;0.8;;
76548;SDS011;65391;52.068;4.542;2023-07-13T02:56:49;5.4;;;0.8;;
76548;SDS011;65391;52.068;4.542;2023-07-13T02:59:14;5.4;;;0.8;;
76548;SDS011;65391;52.068;4.542;2023-07-13T03:01:39;8.8;;;1.6;;
76548;SDS011;65391;52.068;4.542;2023-07-13T03:04:04;8.8;;;1.6;;
76548;SDS011;65391;52.068;4.542;2023-07-13T03:06:30;8.8;;;1.6;;
76548;SDS011;65391;52.068;4.542;2023-07-13T03:08:54;8.8;;;1.6;;
76548;SDS011;65391;52.068;4.542;2023-07-13T03:11:19;9.5;;;1.2;;
76548;SDS011;65391;52.068;4.542;2023-07-13T03:13:44;9.5;;;1.2;;
76548;SDS011;65391;52.068;4.542;2023-07-13T03:16:09;9.5;;;1.2;;
76548;SDS011;65391;52.068;4.542;2023-07-13T03:18:35;9.5;;;1.2;;
76548;SDS011;65391;52.068;4.542;2023-07-13T03:20:59;9.5;;;1.2;;
76548;SDS011;65391;52.068;4.542;2023-07-13T03:23:24;9.3;;;1.4;;
76548;SDS011;65391;52.068;4.542;2023-07-13T03:25:49;9.3;;;1.4;;
76548;SDS011;65391;52.068;4.542;2023-07-13T03:28:14;9.3;;;1.4;;
76548;SDS011;65391;52.068;4.542;2023-07-13T03:30:39;9.3;;;1.4;;
76548;SDS011;65391;52.068;4.542;2023-07-13T03:33:04;11.5;;;1.8;;
76548;SDS011;65391;52.068;4.542;2023-07-13T03:35:29;11.5;;;1.8;;
76548;SDS011;65391;52.068;4.542;2023-07-13T03:37:54;11.5;;;1.8;;
76548;SDS011;65391;52.068;4.542;2023-07-13T03:40:19;11.5;;;1.8;;
76548;SDS011;65391;52.068;4.542;2023-07-13T03:42:44;7.3;;;1.9;;
76548;SDS011;65391;52.068;4.542;2023-07-13T03:45:09;7.3;;;1.9;;
76548;SDS011;65391;52.068;4.542;2023-07-13T03:47:34;7.3;;;1.9;;
76548;SDS011;65391;52.068;4.542;2023-07-13T03:49:59;7.3;;;1.9;;
76548;SDS011;65391;52.068;4.542;2023-07-13T03:52:24;11.5;;;2;;
76548;SDS011;65391;52.068;4.542;2023-07-13T03:54:49;11.5;;;2;;
76548;SDS011;65391;52.068;4.542;2023-07-13T03:57:14;11.5;;;2;;
76548;SDS011;65391;52.068;4.542;2023-07-13T03:59:39;11.5;;;2;;
76548;SDS011;65391;52.068;4.542;2023-07-13T04:02:04;12.4;;;2.3;;
76548;SDS011;65391;52.068;4.542;2023-07-13T04:04:29;12.4;;;2.3;;
76548;SDS011;65391;52.068;4.542;2023-07-13T04:06:54;12.4;;;2.3;;
76548;SDS011;65391;52.068;4.542;2023-07-13T04:09:19;12.4;;;2.3;;
76548;SDS011;65391;52.068;4.542;2023-07-13T04:11:44;11.4;;;2;;
76548;SDS011;65391;52.068;4.542;2023-07-13T04:14:09;11.4;;;2;;
76548;SDS011;65391;52.068;4.542;2023-07-13T04:16:34;11.4;;;2;;
76548;SDS011;65391;52.068;4.542;2023-07-13T04:18:59;11.4;;;2;;
76548;SDS011;65391;52.068;4.542;2023-07-13T04:21:24;11.2;;;2.2;;
76548;SDS011;65391;52.068;4.542;2023-07-13T04:23:49;11.2;;;2.2;;
76548;SDS011;65391;52.068;4.542;2023-07-13T04:26:14;11.2;;;2.2;;
76548;SDS011;65391;52.068;4.542;2023-07-13T04:28:39;11.2;;;2.2;;
76548;SDS011;65391;52.068;4.542;2023-07-13T04:31:04;11.2;;;2.2;;
76548;SDS011;65391;52.068;4.542;2023-07-13T04:33:29;12.4;;;2.3;;
76548;SDS011;65391;52.068;4.542;2023-07-13T04:35:54;12.4;;;2.3;;
76548;SDS011;65391;52.068;4.542;2023-07-13T04:38:19;12.4;;;2.3;;
76548;SDS011;65391;52.068;4.542;2023-07-13T04:40:44;12.4;;;2.3;;
76548;SDS011;65391;52.068;4.542;2023-07-13T04:43:09;10.3;;;2.5;;
76548;SDS011;65391;52.068;4.542;2023-07-13T04:45:34;10.3;;;2.5;;
76548;SDS011;65391;52.068;4.542;2023-07-13T04:47:59;10.3;;;2.5;;
76548;SDS011;65391;52.068;4.542;2023-07-13T04:50:24;10.3;;;2.5;;
76548;SDS011;65391;52.068;4.542;2023-07-13T04:52:49;11.8;;;2.9;;
76548;SDS011;65391;52.068;4.542;2023-07-13T04:55:14;11.8;;;2.9;;
76548;SDS011;65391;52.068;4.542;2023-07-13T04:57:39;11.8;;;2.9;;
76548;SDS011;65391;52.068;4.542;2023-07-13T05:00:05;11.8;;;2.9;;
76548;SDS011;65391;52.068;4.542;2023-07-13T05:02:29;13.1;;;2.6;;
76548;SDS011;65391;52.068;4.542;2023-07-13T05:04:54;13.1;;;2.6;;
76548;SDS011;65391;52.068;4.542;2023-07-13T05:07:19;13.1;;;2.6;;
76548;SDS011;65391;52.068;4.542;2023-07-13T05:09:44;13.1;;;2.6;;
76548;SDS011;65391;52.068;4.542;2023-07-13T05:12:09;10.6;;;1.7;;
76548;SDS011;65391;52.068;4.542;2023-07-13T05:14:34;10.6;;;1.7;;
76548;SDS011;65391;52.068;4.542;2023-07-13T05:16:59;10.6;;;1.7;;
76548;SDS011;65391;52.068;4.542;2023-07-13T05:19:24;10.6;;;1.7;;
76548;SDS011;65391;52.068;4.542;2023-07-13T05:21:49;6.8;;;1.8;;
76548;SDS011;65391;52.068;4.542;2023-07-13T05:24:14;6.8;;;1.8;;
76548;SDS011;65391;52.068;4.542;2023-07-13T05:26:39;6.8;;;1.8;;
76548;SDS011;65391;52.068;4.542;2023-07-13T05:29:04;6.8;;;1.8;;
76548;SDS011;65391;52.068;4.542;2023-07-13T05:31:29;8.6;;;1.9;;
76548;SDS011;65391;52.068;4.542;2023-07-13T05:33:54;8.6;;;1.9;;
76548;SDS011;65391;52.068;4.542;2023-07-13T05:36:19;8.6;;;1.9;;
76548;SDS011;65391;52.068;4.542;2023-07-13T05:38:44;8.6;;;1.9;;
76548;SDS011;65391;52.068;4.542;2023-07-13T05:41:09;8.6;;;1.9;;
76548;SDS011;65391;52.068;4.542;2023-07-13T05:43:34;5.4;;;1.6;;
76548;SDS011;65391;52.068;4.542;2023-07-13T05:45:59;5.4;;;1.6;;
76548;SDS011;65391;52.068;4.542;2023-07-13T05:48:24;5.4;;;1.6;;
76548;SDS011;65391;52.068;4.542;2023-07-13T05:50:49;5.4;;;1.6;;
76548;SDS011;65391;52.068;4.542;2023-07-13T05:53:14;4.1;;;1.4;;
76548;SDS011;65391;52.068;4.542;2023-07-13T05:55:41;4.1;;;1.4;;
76548;SDS011;65391;52.068;4.542;2023-07-13T05:58:04;4.1;;;1.4;;
76548;SDS011;65391;52.068;4.542;2023-07-13T06:00:29;4.1;;;1.4;;
76548;SDS011;65391;52.068;4.542;2023-07-13T06:02:55;6.8;;;2.2;;
76548;SDS011;65391;52.068;4.542;2023-07-13T06:05:19;6.8;;;2.2;;
76548;SDS011;65391;52.068;4.542;2023-07-13T06:07:44;6.8;;;2.2;;
76548;SDS011;65391;52.068;4.542;2023-07-13T06:10:09;6.8;;;2.2;;
76548;SDS011;65391;52.068;4.542;2023-07-13T06:12:34;6.8;;;2.1;;
76548;SDS011;65391;52.068;4.542;2023-07-13T06:14:59;6.8;;;2.1;;
76548;SDS011;65391;52.068;4.542;2023-07-13T06:17:24;6.8;;;2.1;;
76548;SDS011;65391;52.068;4.542;2023-07-13T06:19:49;6.8;;;2.1;;
76548;SDS011;65391;52.068;4.542;2023-07-13T06:22:14;8.1;;;2.1;;
76548;SDS011;65391;52.068;4.542;2023-07-13T06:24:39;8.1;;;2.1;;
76548;SDS011;65391;52.068;4.542;2023-07-13T06:27:05;8.1;;;2.1;;
76548;SDS011;65391;52.068;4.542;2023-07-13T06:29:29;8.1;;;2.1;;
76548;SDS011;65391;52.068;4.542;2023-07-13T06:31:54;4;;;1.3;;
76548;SDS011;65391;52.068;4.542;2023-07-13T06:34:19;4;;;1.3;;
76548;SDS011;65391;52.068;4.542;2023-07-13T06:36:44;4;;;1.3;;
76548;SDS011;65391;52.068;4.542;2023-07-13T06:39:09;4;;;1.3;;
76548;SDS011;65391;52.068;4.542;2023-07-13T06:41:34;6.1;;;2;;
76548;SDS011;65391;52.068;4.542;2023-07-13T06:43:59;6.1;;;2;;
76548;SDS011;65391;52.068;4.542;2023-07-13T06:46:24;6.1;;;2;;
76548;SDS011;65391;52.068;4.542;2023-07-13T06:48:49;6.1;;;2;;
76548;SDS011;65391;52.068;4.542;2023-07-13T06:51:14;6.1;;;2;;
76548;SDS011;65391;52.068;4.542;2023-07-13T06:53:39;7;;;1.7;;
76548;SDS011;65391;52.068;4.542;2023-07-13T06:56:04;7;;;1.7;;
76548;SDS011;65391;52.068;4.542;2023-07-13T06:58:29;7;;;1.7;;
76548;SDS011;65391;52.068;4.542;2023-07-13T07:00:54;7;;;1.7;;
76548;SDS011;65391;52.068;4.542;2023-07-13T07:03:19;4.5;;;1.8;;
76548;SDS011;65391;52.068;4.542;2023-07-13T07:05:44;4.5;;;1.8;;
76548;SDS011;65391;52.068;4.542;2023-07-13T07:08:09;4.5;;;1.8;;
76548;SDS011;65391;52.068;4.542;2023-07-13T07:10:34;4.5;;;1.8;;
76548;SDS011;65391;52.068;4.542;2023-07-13T07:12:59;5.4;;;1.8;;
76548;SDS011;65391;52.068;4.542;2023-07-13T07:15:24;5.4;;;1.8;;
76548;SDS011;65391;52.068;4.542;2023-07-13T07:17:49;5.4;;;1.8;;
76548;SDS011;65391;52.068;4.542;2023-07-13T07:20:14;5.4;;;1.8;;
76548;SDS011;65391;52.068;4.542;2023-07-13T07:22:39;6;;;1.7;;
76548;SDS011;65391;52.068;4.542;2023-07-13T07:25:05;6;;;1.7;;
76548;SDS011;65391;52.068;4.542;2023-07-13T07:27:29;6;;;1.7;;
76548;SDS011;65391;52.068;4.542;2023-07-13T07:29:54;6;;;1.7;;
76548;SDS011;65391;52.068;4.542;2023-07-13T07:32:19;5.4;;;2.2;;
76548;SDS011;65391;52.068;4.542;2023-07-13T07:34:44;5.4;;;2.2;;
76548;SDS011;65391;52.068;4.542;2023-07-13T07:37:10;5.4;;;2.2;;
76548;SDS011;65391;52.068;4.542;2023-07-13T07:39:34;5.4;;;2.2;;
76548;SDS011;65391;52.068;4.542;2023-07-13T07:42:00;5.3;;;1.9;;
76548;SDS011;65391;52.068;4.542;2023-07-13T07:44:24;5.3;;;1.9;;
76548;SDS011;65391;52.068;4.542;2023-07-13T07:46:49;5.3;;;1.9;;
76548;SDS011;65391;52.068;4.542;2023-07-13T07:49:14;5.3;;;1.9;;
76548;SDS011;65391;52.068;4.542;2023-07-13T07:51:39;5;;;1.7;;
76548;SDS011;65391;52.068;4.542;2023-07-13T07:54:04;5;;;1.7;;
76548;SDS011;65391;52.068;4.542;2023-07-13T07:56:29;5;;;1.7;;
76548;SDS011;65391;52.068;4.542;2023-07-13T07:58:54;5;;;1.7;;
76548;SDS011;65391;52.068;4.542;2023-07-13T08:01:19;5;;;1.7;;
76548;SDS011;65391;52.068;4.542;2023-07-13T08:03:44;10.9;;;1.6;;
76548;SDS011;65391;52.068;4.542;2023-07-13T08:06:09;10.9;;;1.6;;
76548;SDS011;65391;52.068;4.542;2023-07-13T08:08:34;10.9;;;1.6;;
76548;SDS011;65391;52.068;4.542;2023-07-13T08:11:02;10.9;;;1.6;;
76548;SDS011;65391;52.068;4.542;2023-07-13T08:13:24;5;;;1.5;;
76548;SDS011;65391;52.068;4.542;2023-07-13T08:15:49;5;;;1.5;;
76548;SDS011;65391;52.068;4.542;2023-07-13T08:18:14;5;;;1.5;;
76548;SDS011;65391;52.068;4.542;2023-07-13T08:20:39;5;;;1.5;;
76548;SDS011;65391;52.068;4.542;2023-07-13T08:23:04;4;;;1.4;;
76548;SDS011;65391;52.068;4.542;2023-07-13T08:25:29;4;;;1.4;;
76548;SDS011;65391;52.068;4.542;2023-07-13T08:27:54;4;;;1.4;;
76548;SDS011;65391;52.068;4.542;2023-07-13T08:30:19;4;;;1.4;;
76548;SDS011;65391;52.068;4.542;2023-07-13T08:32:44;3.9;;;1.6;;
76548;SDS011;65391;52.068;4.542;2023-07-13T08:35:09;3.9;;;1.6;;
76548;SDS011;65391;52.068;4.542;2023-07-13T08:37:34;3.9;;;1.6;;
76548;SDS011;65391;52.068;4.542;2023-07-13T08:40:00;3.9;;;1.6;;
76548;SDS011;65391;52.068;4.542;2023-07-13T08:42:33;6.9;;;1.8;;
76548;SDS011;65391;52.068;4.542;2023-07-13T08:44:54;6.9;;;1.8;;
76548;SDS011;65391;52.068;4.542;2023-07-13T08:47:14;6.9;;;1.8;;
76548;SDS011;65391;52.068;4.542;2023-07-13T08:49:39;6.9;;;1.8;;
76548;SDS011;65391;52.068;4.542;2023-07-13T08:52:08;3.9;;;1.7;;
76548;SDS011;65391;52.068;4.542;2023-07-13T08:54:31;3.9;;;1.7;;
76548;SDS011;65391;52.068;4.542;2023-07-13T08:56:54;3.9;;;1.7;;
76548;SDS011;65391;52.068;4.542;2023-07-13T08:59:21;3.9;;;1.7;;
76548;SDS011;65391;52.068;4.542;2023-07-13T09:01:52;7.5;;;1.4;;
76548;SDS011;65391;52.068;4.542;2023-07-13T09:04:13;7.5;;;1.4;;
76548;SDS011;65391;52.068;4.542;2023-07-13T09:06:40;7.5;;;1.4;;
76548;SDS011;65391;52.068;4.542;2023-07-13T09:09:01;7.5;;;1.4;;
76548;SDS011;65391;52.068;4.542;2023-07-13T09:11:34;7.5;;;1.4;;
76548;SDS011;65391;52.068;4.542;2023-07-13T09:13:54;5.4;;;1.5;;
76548;SDS011;65391;52.068;4.542;2023-07-13T09:16:14;5.4;;;1.5;;
76548;SDS011;65391;52.068;4.542;2023-07-13T09:18:41;5.4;;;1.5;;
76548;SDS011;65391;52.068;4.542;2023-07-13T09:21:07;5.4;;;1.5;;
76548;SDS011;65391;52.068;4.542;2023-07-13T09:23:30;4.2;;;1.5;;
76548;SDS011;65391;52.068;4.542;2023-07-13T09:25:59;4.2;;;1.5;;
76548;SDS011;65391;52.068;4.542;2023-07-13T09:28:22;4.2;;;1.5;;
76548;SDS011;65391;52.068;4.542;2023-07-13T09:30:46;4.2;;;1.5;;
76548;SDS011;65391;52.068;4.542;2023-07-13T09:33:10;2.5;;;1.4;;
76548;SDS011;65391;52.068;4.542;2023-07-13T09:35:34;2.5;;;1.4;;
76548;SDS011;65391;52.068;4.542;2023-07-13T09:38:04;2.5;;;1.4;;
76548;SDS011;65391;52.068;4.542;2023-07-13T09:40:29;2.5;;;1.4;;
76548;SDS011;65391;52.068;4.542;2023-07-13T09:42:51;4.3;;;1.4;;
76548;SDS011;65391;52.068;4.542;2023-07-13T09:45:17;4.3;;;1.4;;
76548;SDS011;65391;52.068;4.542;2023-07-13T09:47:40;4.3;;;1.4;;
76548;SDS011;65391;52.068;4.542;2023-07-13T09:50:08;4.3;;;1.4;;
76548;SDS011;65391;52.068;4.542;2023-07-13T09:52:40;6.9;;;2.1;;
76548;SDS011;65391;52.068;4.542;2023-07-13T09:54:55;6.9;;;2.1;;
76548;SDS011;65391;52.068;4.542;2023-07-13T09:57:22;6.9;;;2.1;;
76548;SDS011;65391;52.068;4.542;2023-07-13T09:59:46;6.9;;;2.1;;
76548;SDS011;65391;52.068;4.542;2023-07-13T10:02:23;3.9;;;1.7;;
76548;SDS011;65391;52.068;4.542;2023-07-13T10:04:34;3.9;;;1.7;;
76548;SDS011;65391;52.068;4.542;2023-07-13T10:07:11;3.9;;;1.7;;
76548;SDS011;65391;52.068;4.542;2023-07-13T10:09:25;3.9;;;1.7;;
76548;SDS011;65391;52.068;4.542;2023-07-13T10:11:49;6.1;;;1.9;;
76548;SDS011;65391;52.068;4.542;2023-07-13T10:14:16;6.1;;;1.9;;
76548;SDS011;65391;52.068;4.542;2023-07-13T10:16:39;6.1;;;1.9;;
76548;SDS011;65391;52.068;4.542;2023-07-13T10:19:08;6.1;;;1.9;;
76548;SDS011;65391;52.068;4.542;2023-07-13T10:21:32;6.1;;;1.9;;
76548;SDS011;65391;52.068;4.542;2023-07-13T10:23:56;2.8;;;1.5;;
76548;SDS011;65391;52.068;4.542;2023-07-13T10:26:23;2.8;;;1.5;;
76548;SDS011;65391;52.068;4.542;2023-07-13T10:28:45;2.8;;;1.5;;
76548;SDS011;65391;52.068;4.542;2023-07-13T10:31:12;2.8;;;1.5;;
76548;SDS011;65391;52.068;4.542;2023-07-13T10:33:35;4.1;;;1.6;;
76548;SDS011;65391;52.068;4.542;2023-07-13T10:36:03;4.1;;;1.6;;
76548;SDS011;65391;52.068;4.542;2023-07-13T10:38:25;4.1;;;1.6;;
76548;SDS011;65391;52.068;4.542;2023-07-13T10:41:01;4.1;;;1.6;;
76548;SDS011;65391;52.068;4.542;2023-07-13T10:43:17;3.2;;;1.4;;
76548;SDS011;65391;52.068;4.542;2023-07-13T10:45:40;3.2;;;1.4;;
76548;SDS011;65391;52.068;4.542;2023-07-13T10:48:05;3.2;;;1.4;;
76548;SDS011;65391;52.068;4.542;2023-07-13T10:50:30;3.2;;;1.4;;
76548;SDS011;65391;52.068;4.542;2023-07-13T10:52:55;8.2;;;1.8;;
76548;SDS011;65391;52.068;4.542;2023-07-13T10:55:37;8.2;;;1.8;;
76548;SDS011;65391;52.068;4.542;2023-07-13T10:57:45;8.2;;;1.8;;
76548;SDS011;65391;52.068;4.542;2023-07-13T11:00:15;8.2;;;1.8;;
76548;SDS011;65391;52.068;4.542;2023-07-13T11:02:35;5.2;;;1.9;;
76548;SDS011;65391;52.068;4.542;2023-07-13T11:05:02;5.2;;;1.9;;
76548;SDS011;65391;52.068;4.542;2023-07-13T11:07:26;5.2;;;1.9;;
76548;SDS011;65391;52.068;4.542;2023-07-13T11:09:50;5.2;;;1.9;;
76548;SDS011;65391;52.068;4.542;2023-07-13T11:15:02;7.8;;;2.1;;
76548;SDS011;65391;52.068;4.542;2023-07-13T11:17:24;7.8;;;2.1;;
76548;SDS011;65391;52.068;4.542;2023-07-13T11:19:39;7.8;;;2.1;;
76548;SDS011;65391;52.068;4.542;2023-07-13T11:22:09;7.8;;;2.1;;
76548;SDS011;65391;52.068;4.542;2023-07-13T11:24:20;8.1;;;2.5;;
76548;SDS011;65391;52.068;4.542;2023-07-13T11:26:51;8.1;;;2.5;;
76548;SDS011;65391;52.068;4.542;2023-07-13T11:29:21;8.1;;;2.5;;
76548;SDS011;65391;52.068;4.542;2023-07-13T11:31:35;8.1;;;2.5;;
76548;SDS011;65391;52.068;4.542;2023-07-13T11:34:00;7.9;;;1.8;;
76548;SDS011;65391;52.068;4.542;2023-07-13T11:36:29;7.9;;;1.8;;
76548;SDS011;65391;52.068;4.542;2023-07-13T11:38:58;7.9;;;1.8;;
76548;SDS011;65391;52.068;4.542;2023-07-13T11:41:16;7.9;;;1.8;;
76548;SDS011;65391;52.068;4.542;2023-07-13T11:43:40;4.3;;;1.6;;
76548;SDS011;65391;52.068;4.542;2023-07-13T11:46:23;4.3;;;1.6;;
76548;SDS011;65391;52.068;4.542;2023-07-13T11:48:30;4.3;;;1.6;;
76548;SDS011;65391;52.068;4.542;2023-07-13T11:50:57;4.3;;;1.6;;
76548;SDS011;65391;52.068;4.542;2023-07-13T11:53:20;6.4;;;2;;
76548;SDS011;65391;52.068;4.542;2023-07-13T11:55:45;6.4;;;2;;
76548;SDS011;65391;52.068;4.542;2023-07-13T11:58:10;6.4;;;2;;
76548;SDS011;65391;52.068;4.542;2023-07-13T12:00:35;6.4;;;2;;
76548;SDS011;65391;52.068;4.542;2023-07-13T12:03:00;5.3;;;1.9;;
76548;SDS011;65391;52.068;4.542;2023-07-13T12:05:25;5.3;;;1.9;;
76548;SDS011;65391;52.068;4.542;2023-07-13T12:07:51;5.3;;;1.9;;
76548;SDS011;65391;52.068;4.542;2023-07-13T12:10:18;5.3;;;1.9;;
76548;SDS011;65391;52.068;4.542;2023-07-13T12:12:45;4.7;;;1.9;;
76548;SDS011;65391;52.068;4.542;2023-07-13T12:15:06;4.7;;;1.9;;
76548;SDS011;65391;52.068;4.542;2023-07-13T12:17:30;4.7;;;1.9;;
76548;SDS011;65391;52.068;4.542;2023-07-13T12:19:55;4.7;;;1.9;;
76548;SDS011;65391;52.068;4.542;2023-07-13T12:22:20;6;;;1.9;;
76548;SDS011;65391;52.068;4.542;2023-07-13T12:24:45;6;;;1.9;;
76548;SDS011;65391;52.068;4.542;2023-07-13T12:27:17;6;;;1.9;;
76548;SDS011;65391;52.068;4.542;2023-07-13T12:29:35;6;;;1.9;;
76548;SDS011;65391;52.068;4.542;2023-07-13T12:32:00;6;;;1.9;;
76548;SDS011;65391;52.068;4.542;2023-07-13T12:34:26;3.3;;;1.1;;
76548;SDS011;65391;52.068;4.542;2023-07-13T12:36:51;3.3;;;1.1;;
76548;SDS011;65391;52.068;4.542;2023-07-13T12:39:17;3.3;;;1.1;;
76548;SDS011;65391;52.068;4.542;2023-07-13T12:41:40;3.3;;;1.1;;
76548;SDS011;65391;52.068;4.542;2023-07-13T12:44:09;2.1;;;1.4;;
76548;SDS011;65391;52.068;4.542;2023-07-13T12:46:30;2.1;;;1.4;;
76548;SDS011;65391;52.068;4.542;2023-07-13T12:48:56;2.1;;;1.4;;
76548;SDS011;65391;52.068;4.542;2023-07-13T12:51:21;2.1;;;1.4;;
76548;SDS011;65391;52.068;4.542;2023-07-13T12:53:48;2.6;;;1.4;;
76548;SDS011;65391;52.068;4.542;2023-07-13T12:56:15;2.6;;;1.4;;
76548;SDS011;65391;52.068;4.542;2023-07-13T12:58:36;2.6;;;1.4;;
76548;SDS011;65391;52.068;4.542;2023-07-13T13:01:01;2.6;;;1.4;;
76548;SDS011;65391;52.068;4.542;2023-07-13T13:03:28;6.1;;;1.3;;
76548;SDS011;65391;52.068;4.542;2023-07-13T13:05:57;6.1;;;1.3;;
76548;SDS011;65391;52.068;4.542;2023-07-13T13:08:15;6.1;;;1.3;;
76548;SDS011;65391;52.068;4.542;2023-07-13T13:10:40;6.1;;;1.3;;
76548;SDS011;65391;52.068;4.542;2023-07-13T13:13:05;2.2;;;0.9;;
76548;SDS011;65391;52.068;4.542;2023-07-13T13:15:30;2.2;;;0.9;;
76548;SDS011;65391;52.068;4.542;2023-07-13T13:17:55;2.2;;;0.9;;
76548;SDS011;65391;52.068;4.542;2023-07-13T13:20:21;2.2;;;0.9;;
76548;SDS011;65391;52.068;4.542;2023-07-13T13:22:45;3.4;;;1.4;;
76548;SDS011;65391;52.068;4.542;2023-07-13T13:25:10;3.4;;;1.4;;
76548;SDS011;65391;52.068;4.542;2023-07-13T13:27:35;3.4;;;1.4;;
76548;SDS011;65391;52.068;4.542;2023-07-13T13:30:00;3.4;;;1.4;;
76548;SDS011;65391;52.068;4.542;2023-07-13T13:32:25;4.5;;;1.1;;
76548;SDS011;65391;52.068;4.542;2023-07-13T13:34:50;4.5;;;1.1;;
76548;SDS011;65391;52.068;4.542;2023-07-13T13:37:18;4.5;;;1.1;;
76548;SDS011;65391;52.068;4.542;2023-07-13T13:39:40;4.5;;;1.1;;
76548;SDS011;65391;52.068;4.542;2023-07-13T13:42:05;4.5;;;1.1;;
76548;SDS011;65391;52.068;4.542;2023-07-13T13:44:30;2.8;;;1;;
76548;SDS011;65391;52.068;4.542;2023-07-13T13:46:55;2.8;;;1;;
76548;SDS011;65391;52.068;4.542;2023-07-13T13:49:23;2.8;;;1;;
76548;SDS011;65391;52.068;4.542;2023-07-13T13:51:45;2.8;;;1;;
76548;SDS011;65391;52.068;4.542;2023-07-13T13:54:12;4.1;;;1.3;;
76548;SDS011;65391;52.068;4.542;2023-07-13T13:56:35;4.1;;;1.3;;
76548;SDS011;65391;52.068;4.542;2023-07-13T13:59:00;4.1;;;1.3;;
76548;SDS011;65391;52.068;4.542;2023-07-13T14:01:25;4.1;;;1.3;;
76548;SDS011;65391;52.068;4.542;2023-07-13T14:03:50;2.2;;;1;;
76548;SDS011;65391;52.068;4.542;2023-07-13T14:06:15;2.2;;;1;;
76548;SDS011;65391;52.068;4.542;2023-07-13T14:08:40;2.2;;;1;;
76548;SDS011;65391;52.068;4.542;2023-07-13T14:11:05;2.2;;;1;;
76548;SDS011;65391;52.068;4.542;2023-07-13T14:13:32;1.9;;;0.7;;
76548;SDS011;65391;52.068;4.542;2023-07-13T14:15:55;1.9;;;0.7;;
76548;SDS011;65391;52.068;4.542;2023-07-13T14:18:20;1.9;;;0.7;;
76548;SDS011;65391;52.068;4.542;2023-07-13T14:20:45;1.9;;;0.7;;
76548;SDS011;65391;52.068;4.542;2023-07-13T14:23:10;5;;;1;;
76548;SDS011;65391;52.068;4.542;2023-07-13T14:25:35;5;;;1;;
76548;SDS011;65391;52.068;4.542;2023-07-13T14:28:17;5;;;1;;
76548;SDS011;65391;52.068;4.542;2023-07-13T14:30:25;5;;;1;;
76548;SDS011;65391;52.068;4.542;2023-07-13T14:32:50;2.2;;;0.8;;
76548;SDS011;65391;52.068;4.542;2023-07-13T14:35:16;2.2;;;0.8;;
76548;SDS011;65391;52.068;4.542;2023-07-13T14:37:40;2.2;;;0.8;;
76548;SDS011;65391;52.068;4.542;2023-07-13T14:40:12;2.2;;;0.8;;
76548;SDS011;65391;52.068;4.542;2023-07-13T14:42:30;2.5;;;0.8;;
76548;SDS011;65391;52.068;4.542;2023-07-13T14:44:55;2.5;;;0.8;;
76548;SDS011;65391;52.068;4.542;2023-07-13T14:47:20;2.5;;;0.8;;
76548;SDS011;65391;52.068;4.542;2023-07-13T14:49:45;2.5;;;0.8;;
76548;SDS011;65391;52.068;4.542;2023-07-13T14:52:12;2.5;;;0.8;;
76548;SDS011;65391;52.068;4.542;2023-07-13T14:54:35;2.2;;;1.3;;
76548;SDS011;65391;52.068;4.542;2023-07-13T14:57:00;2.2;;;1.3;;
76548;SDS011;65391;52.068;4.542;2023-07-13T14:59:25;2.2;;;1.3;;
76548;SDS011;65391;52.068;4.542;2023-07-13T15:01:50;2.2;;;1.3;;
76548;SDS011;65391;52.068;4.542;2023-07-13T15:04:15;4.6;;;1.1;;